sensor_id;sensor_type;location;lat;lon;timestamp;P1;durP1;ratioP1;P2;durP2;ratioP2
71753;SDS011;59593;51.716;7.016;2023-10-19T00:01:24;11.37;;;9.03;;
71753;SDS011;59593;51.716;7.016;2023-10-19T00:03:51;11.43;;;8.73;;
71753;SDS011;59593;51.716;7.016;2023-10-19T00:06:20;11.90;;;9.13;;
71753;SDS011;59593;51.716;7.016;2023-10-19T00:12:12;12.57;;;9.65;;
71753;SDS011;59593;51.716;7.016;2023-10-19T00:14:40;12.13;;;9.70;;
71753;SDS011;59593;51.716;7.016;2023-10-19T00:20:28;11.30;;;9.33;;
71753;SDS011;59593;51.716;7.016;2023-10-19T00:23:06;11.67;;;9.57;;
71753;SDS011;59593;51.716;7.016;2023-10-19T00:25:32;12.40;;;9.70;;
71753;SDS011;59593;51.716;7.016;2023-10-19T00:27:59;12.73;;;9.90;;
71753;SDS011;59593;51.716;7.016;2023-10-19T00:30:29;11.50;;;10.27;;
71753;SDS011;59593;51.716;7.016;2023-10-19T00:32:57;11.33;;;10.13;;
71753;SDS011;59593;51.716;7.016;2023-10-19T00:35:28;12.47;;;10.27;;
71753;SDS011;59593;51.716;7.016;2023-10-19T00:38:14;13.03;;;10.27;;
71753;SDS011;59593;51.716;7.016;2023-10-19T00:41:00;12.77;;;10.70;;
71753;SDS011;59593;51.716;7.016;2023-10-19T00:43:37;12.57;;;11.23;;
71753;SDS011;59593;51.716;7.016;2023-10-19T00:46:09;12.35;;;11.15;;
71753;SDS011;59593;51.716;7.016;2023-10-19T00:52:03;15.93;;;12.87;;
71753;SDS011;59593;51.716;7.016;2023-10-19T00:54:44;15.03;;;13.07;;
71753;SDS011;59593;51.716;7.016;2023-10-19T00:57:15;17.23;;;13.37;;
71753;SDS011;59593;51.716;7.016;2023-10-19T00:59:46;15.87;;;13.50;;
71753;SDS011;59593;51.716;7.016;2023-10-19T01:02:19;15.57;;;13.20;;
71753;SDS011;59593;51.716;7.016;2023-10-19T01:04:54;17.30;;;13.93;;
71753;SDS011;59593;51.716;7.016;2023-10-19T01:07:22;20.50;;;15.63;;
71753;SDS011;59593;51.716;7.016;2023-10-19T01:13:10;18.67;;;15.30;;
71753;SDS011;59593;51.716;7.016;2023-10-19T01:15:37;16.90;;;15.10;;
71753;SDS011;59593;51.716;7.016;2023-10-19T01:18:02;18.40;;;15.70;;
71753;SDS011;59593;51.716;7.016;2023-10-19T01:23:52;20.27;;;15.50;;
71753;SDS011;59593;51.716;7.016;2023-10-19T01:26:17;18.50;;;15.03;;
71753;SDS011;59593;51.716;7.016;2023-10-19T01:28:52;17.33;;;15.35;;
71753;SDS011;59593;51.716;7.016;2023-10-19T01:31:24;18.83;;;15.97;;
71753;SDS011;59593;51.716;7.016;2023-10-19T01:37:17;17.33;;;15.53;;
71753;SDS011;59593;51.716;7.016;2023-10-19T01:39:42;18.07;;;16.00;;
71753;SDS011;59593;51.716;7.016;2023-10-19T01:42:10;20.53;;;16.93;;
71753;SDS011;59593;51.716;7.016;2023-10-19T01:44:36;20.73;;;17.00;;
71753;SDS011;59593;51.716;7.016;2023-10-19T01:50:24;19.33;;;15.60;;
71753;SDS011;59593;51.716;7.016;2023-10-19T01:52:49;19.70;;;16.17;;
71753;SDS011;59593;51.716;7.016;2023-10-19T01:55:16;19.42;;;16.38;;
71753;SDS011;59593;51.716;7.016;2023-10-19T01:57:45;20.08;;;16.17;;
71753;SDS011;59593;51.716;7.016;2023-10-19T02:00:11;18.33;;;15.00;;
71753;SDS011;59593;51.716;7.016;2023-10-19T02:02:47;18.55;;;16.55;;
71753;SDS011;59593;51.716;7.016;2023-10-19T02:05:12;16.95;;;15.20;;
71753;SDS011;59593;51.716;7.016;2023-10-19T02:07:40;17.63;;;15.73;;
71753;SDS011;59593;51.716;7.016;2023-10-19T02:10:06;16.73;;;14.88;;
71753;SDS011;59593;51.716;7.016;2023-10-19T02:12:35;17.50;;;14.88;;
71753;SDS011;59593;51.716;7.016;2023-10-19T02:15:01;17.60;;;15.23;;
71753;SDS011;59593;51.716;7.016;2023-10-19T02:17:29;17.08;;;15.27;;
71753;SDS011;59593;51.716;7.016;2023-10-19T02:23:18;17.02;;;14.90;;
71753;SDS011;59593;51.716;7.016;2023-10-19T02:25:53;16.35;;;14.65;;
71753;SDS011;59593;51.716;7.016;2023-10-19T02:28:19;16.25;;;14.18;;
71753;SDS011;59593;51.716;7.016;2023-10-19T02:34:18;18.95;;;15.05;;
71753;SDS011;59593;51.716;7.016;2023-10-19T02:36:47;18.05;;;15.45;;
71753;SDS011;59593;51.716;7.016;2023-10-19T02:39:13;17.83;;;15.70;;
71753;SDS011;59593;51.716;7.016;2023-10-19T02:45:01;18.98;;;14.98;;
71753;SDS011;59593;51.716;7.016;2023-10-19T02:47:30;17.65;;;14.80;;
71753;SDS011;59593;51.716;7.016;2023-10-19T02:53:18;18.05;;;15.15;;
71753;SDS011;59593;51.716;7.016;2023-10-19T02:55:44;17.58;;;15.75;;
71753;SDS011;59593;51.716;7.016;2023-10-19T02:58:10;18.58;;;14.77;;
71753;SDS011;59593;51.716;7.016;2023-10-19T03:00:39;16.98;;;14.43;;
71753;SDS011;59593;51.716;7.016;2023-10-19T03:03:05;16.00;;;14.00;;
71753;SDS011;59593;51.716;7.016;2023-10-19T03:08:56;15.65;;;14.05;;
71753;SDS011;59593;51.716;7.016;2023-10-19T03:11:29;16.38;;;13.50;;
71753;SDS011;59593;51.716;7.016;2023-10-19T03:13:59;16.45;;;14.70;;
71753;SDS011;59593;51.716;7.016;2023-10-19T03:19:51;17.63;;;15.55;;
71753;SDS011;59593;51.716;7.016;2023-10-19T03:22:19;17.02;;;15.23;;
71753;SDS011;59593;51.716;7.016;2023-10-19T03:24:44;16.35;;;14.63;;
71753;SDS011;59593;51.716;7.016;2023-10-19T03:27:11;18.27;;;15.70;;
71753;SDS011;59593;51.716;7.016;2023-10-19T03:29:41;16.63;;;14.82;;
71753;SDS011;59593;51.716;7.016;2023-10-19T03:35:36;17.58;;;14.45;;
71753;SDS011;59593;51.716;7.016;2023-10-19T03:38:15;17.85;;;13.55;;
71753;SDS011;59593;51.716;7.016;2023-10-19T03:40:43;15.55;;;13.88;;
71753;SDS011;59593;51.716;7.016;2023-10-19T03:43:17;19.13;;;14.40;;
71753;SDS011;59593;51.716;7.016;2023-10-19T03:49:08;15.50;;;12.75;;
71753;SDS011;59593;51.716;7.016;2023-10-19T03:51:37;14.30;;;12.55;;
71753;SDS011;59593;51.716;7.016;2023-10-19T03:54:08;14.13;;;11.55;;
71753;SDS011;59593;51.716;7.016;2023-10-19T03:56:48;13.20;;;11.80;;
71753;SDS011;59593;51.716;7.016;2023-10-19T04:02:39;13.75;;;11.18;;
71753;SDS011;59593;51.716;7.016;2023-10-19T04:05:07;12.82;;;10.48;;
71753;SDS011;59593;51.716;7.016;2023-10-19T04:07:35;11.40;;;10.20;;
71753;SDS011;59593;51.716;7.016;2023-10-19T04:10:15;10.88;;;9.77;;
71753;SDS011;59593;51.716;7.016;2023-10-19T04:13:05;11.32;;;9.82;;
71753;SDS011;59593;51.716;7.016;2023-10-19T04:18:52;10.50;;;9.32;;
71753;SDS011;59593;51.716;7.016;2023-10-19T04:21:32;11.50;;;9.02;;
71753;SDS011;59593;51.716;7.016;2023-10-19T04:27:20;10.18;;;8.30;;
71753;SDS011;59593;51.716;7.016;2023-10-19T04:29:48;9.93;;;8.80;;
71753;SDS011;59593;51.716;7.016;2023-10-19T04:32:16;12.40;;;9.10;;
71753;SDS011;59593;51.716;7.016;2023-10-19T04:38:12;8.07;;;7.28;;
71753;SDS011;59593;51.716;7.016;2023-10-19T04:40:38;10.88;;;7.80;;
71753;SDS011;59593;51.716;7.016;2023-10-19T04:43:07;10.32;;;7.25;;
71753;SDS011;59593;51.716;7.016;2023-10-19T04:45:33;7.75;;;6.95;;
71753;SDS011;59593;51.716;7.016;2023-10-19T04:48:06;8.98;;;7.20;;
71753;SDS011;59593;51.716;7.016;2023-10-19T04:50:34;7.90;;;7.10;;
71753;SDS011;59593;51.716;7.016;2023-10-19T04:53:00;7.22;;;5.88;;
71753;SDS011;59593;51.716;7.016;2023-10-19T04:55:25;7.88;;;5.85;;
71753;SDS011;59593;51.716;7.016;2023-10-19T04:57:55;11.05;;;5.88;;
71753;SDS011;59593;51.716;7.016;2023-10-19T05:00:22;10.35;;;6.55;;
71753;SDS011;59593;51.716;7.016;2023-10-19T05:02:54;10.90;;;5.75;;
71753;SDS011;59593;51.716;7.016;2023-10-19T05:05:20;8.02;;;5.18;;
71753;SDS011;59593;51.716;7.016;2023-10-19T05:07:49;10.85;;;4.78;;
71753;SDS011;59593;51.716;7.016;2023-10-19T05:10:14;10.43;;;4.78;;
71753;SDS011;59593;51.716;7.016;2023-10-19T05:16:00;7.47;;;4.20;;
71753;SDS011;59593;51.716;7.016;2023-10-19T05:18:25;7.28;;;4.25;;
71753;SDS011;59593;51.716;7.016;2023-10-19T05:21:06;12.98;;;8.05;;
71753;SDS011;59593;51.716;7.016;2023-10-19T05:23:40;14.43;;;10.90;;
71753;SDS011;59593;51.716;7.016;2023-10-19T05:26:06;17.42;;;10.52;;
71753;SDS011;59593;51.716;7.016;2023-10-19T05:28:32;14.82;;;7.35;;
71753;SDS011;59593;51.716;7.016;2023-10-19T05:31:00;10.35;;;5.90;;
71753;SDS011;59593;51.716;7.016;2023-10-19T05:33:33;11.25;;;5.00;;
71753;SDS011;59593;51.716;7.016;2023-10-19T05:35:59;9.60;;;4.32;;
71753;SDS011;59593;51.716;7.016;2023-10-19T05:38:26;6.85;;;4.53;;
71753;SDS011;59593;51.716;7.016;2023-10-19T05:40:52;7.88;;;4.15;;
71753;SDS011;59593;51.716;7.016;2023-10-19T05:43:20;7.95;;;4.60;;
71753;SDS011;59593;51.716;7.016;2023-10-19T05:45:48;5.68;;;3.80;;
71753;SDS011;59593;51.716;7.016;2023-10-19T05:48:17;6.38;;;4.00;;
71753;SDS011;59593;51.716;7.016;2023-10-19T05:50:42;8.52;;;4.38;;
71753;SDS011;59593;51.716;7.016;2023-10-19T05:53:11;6.30;;;4.00;;
71753;SDS011;59593;51.716;7.016;2023-10-19T05:55:43;6.75;;;3.85;;
71753;SDS011;59593;51.716;7.016;2023-10-19T05:58:09;6.65;;;3.97;;
71753;SDS011;59593;51.716;7.016;2023-10-19T06:03:57;4.47;;;3.60;;
71753;SDS011;59593;51.716;7.016;2023-10-19T06:06:30;5.40;;;4.30;;
71753;SDS011;59593;51.716;7.016;2023-10-19T06:08:55;6.05;;;3.80;;
71753;SDS011;59593;51.716;7.016;2023-10-19T06:11:29;6.15;;;3.63;;
71753;SDS011;59593;51.716;7.016;2023-10-19T06:13:57;5.60;;;3.85;;
71753;SDS011;59593;51.716;7.016;2023-10-19T06:16:23;6.05;;;3.63;;
71753;SDS011;59593;51.716;7.016;2023-10-19T06:18:49;8.07;;;4.13;;
71753;SDS011;59593;51.716;7.016;2023-10-19T06:21:17;6.60;;;4.10;;
71753;SDS011;59593;51.716;7.016;2023-10-19T06:23:44;10.43;;;4.70;;
71753;SDS011;59593;51.716;7.016;2023-10-19T06:26:10;6.15;;;4.43;;
71753;SDS011;59593;51.716;7.016;2023-10-19T06:28:36;7.97;;;4.57;;
71753;SDS011;59593;51.716;7.016;2023-10-19T06:34:26;7.55;;;4.03;;
71753;SDS011;59593;51.716;7.016;2023-10-19T06:36:52;5.35;;;3.88;;
71753;SDS011;59593;51.716;7.016;2023-10-19T06:39:20;9.30;;;3.72;;
71753;SDS011;59593;51.716;7.016;2023-10-19T06:41:48;7.28;;;3.90;;
71753;SDS011;59593;51.716;7.016;2023-10-19T06:44:14;8.18;;;4.95;;
71753;SDS011;59593;51.716;7.016;2023-10-19T06:46:42;8.40;;;4.20;;
71753;SDS011;59593;51.716;7.016;2023-10-19T06:49:08;10.50;;;4.45;;
71753;SDS011;59593;51.716;7.016;2023-10-19T06:51:34;9.00;;;4.03;;
71753;SDS011;59593;51.716;7.016;2023-10-19T06:54:04;24.77;;;10.52;;
71753;SDS011;59593;51.716;7.016;2023-10-19T06:56:33;32.33;;;14.85;;
71753;SDS011;59593;51.716;7.016;2023-10-19T07:02:26;64.32;;;28.52;;
71753;SDS011;59593;51.716;7.016;2023-10-19T07:04:52;31.23;;;12.63;;
71753;SDS011;59593;51.716;7.016;2023-10-19T07:10:39;28.73;;;13.95;;
71753;SDS011;59593;51.716;7.016;2023-10-19T07:13:05;21.98;;;8.60;;
71753;SDS011;59593;51.716;7.016;2023-10-19T07:15:30;24.10;;;12.70;;
71753;SDS011;59593;51.716;7.016;2023-10-19T07:21:21;10.73;;;3.83;;
71753;SDS011;59593;51.716;7.016;2023-10-19T07:23:48;41.15;;;19.23;;
71753;SDS011;59593;51.716;7.016;2023-10-19T07:26:26;66.55;;;34.83;;
71753;SDS011;59593;51.716;7.016;2023-10-19T07:28:59;19.58;;;10.32;;
71753;SDS011;59593;51.716;7.016;2023-10-19T07:31:27;7.68;;;5.03;;
71753;SDS011;59593;51.716;7.016;2023-10-19T07:33:55;23.63;;;12.07;;
71753;SDS011;59593;51.716;7.016;2023-10-19T07:36:24;8.80;;;4.68;;
71753;SDS011;59593;51.716;7.016;2023-10-19T07:38:51;16.95;;;9.07;;
71753;SDS011;59593;51.716;7.016;2023-10-19T07:41:17;13.80;;;7.93;;
71753;SDS011;59593;51.716;7.016;2023-10-19T07:43:46;10.52;;;6.10;;
71753;SDS011;59593;51.716;7.016;2023-10-19T07:46:14;10.75;;;5.35;;
71753;SDS011;59593;51.716;7.016;2023-10-19T07:48:40;11.00;;;5.82;;
71753;SDS011;59593;51.716;7.016;2023-10-19T07:51:08;13.18;;;6.75;;
71753;SDS011;59593;51.716;7.016;2023-10-19T07:53:39;10.52;;;4.22;;
71753;SDS011;59593;51.716;7.016;2023-10-19T07:56:05;11.93;;;6.82;;
71753;SDS011;59593;51.716;7.016;2023-10-19T07:58:33;11.57;;;4.35;;
71753;SDS011;59593;51.716;7.016;2023-10-19T08:07:43;12.85;;;6.43;;
71753;SDS011;59593;51.716;7.016;2023-10-19T08:10:09;12.52;;;7.10;;
71753;SDS011;59593;51.716;7.016;2023-10-19T08:15:58;16.40;;;8.93;;
71753;SDS011;59593;51.716;7.016;2023-10-19T08:18:24;15.60;;;7.50;;
71753;SDS011;59593;51.716;7.016;2023-10-19T08:20:49;14.50;;;6.63;;
71753;SDS011;59593;51.716;7.016;2023-10-19T08:23:18;11.35;;;6.32;;
71753;SDS011;59593;51.716;7.016;2023-10-19T08:25:48;10.95;;;5.88;;
71753;SDS011;59593;51.716;7.016;2023-10-19T08:28:16;16.85;;;7.80;;
71753;SDS011;59593;51.716;7.016;2023-10-19T08:30:42;20.27;;;9.38;;
71753;SDS011;59593;51.716;7.016;2023-10-19T08:33:10;14.90;;;7.38;;
71753;SDS011;59593;51.716;7.016;2023-10-19T08:38:42;14.85;;;5.13;;
71753;SDS011;59593;51.716;7.016;2023-10-19T08:41:08;9.50;;;5.40;;
71753;SDS011;59593;51.716;7.016;2023-10-19T08:43:34;9.88;;;6.03;;
71753;SDS011;59593;51.716;7.016;2023-10-19T08:52:58;8.60;;;4.90;;
71753;SDS011;59593;51.716;7.016;2023-10-19T08:55:35;8.25;;;4.15;;
71753;SDS011;59593;51.716;7.016;2023-10-19T09:01:23;6.88;;;4.95;;
71753;SDS011;59593;51.716;7.016;2023-10-19T09:03:52;10.23;;;6.18;;
71753;SDS011;59593;51.716;7.016;2023-10-19T09:06:17;11.55;;;5.65;;
71753;SDS011;59593;51.716;7.016;2023-10-19T09:08:46;10.38;;;3.78;;
71753;SDS011;59593;51.716;7.016;2023-10-19T09:11:14;22.77;;;11.40;;
71753;SDS011;59593;51.716;7.016;2023-10-19T09:13:58;10.70;;;5.97;;
71753;SDS011;59593;51.716;7.016;2023-10-19T09:16:24;8.13;;;4.22;;
71753;SDS011;59593;51.716;7.016;2023-10-19T09:18:51;7.95;;;4.40;;
71753;SDS011;59593;51.716;7.016;2023-10-19T09:21:18;6.35;;;3.10;;
71753;SDS011;59593;51.716;7.016;2023-10-19T09:23:53;5.03;;;2.80;;
71753;SDS011;59593;51.716;7.016;2023-10-19T09:26:25;6.22;;;3.53;;
71753;SDS011;59593;51.716;7.016;2023-10-19T09:28:52;7.88;;;3.30;;
71753;SDS011;59593;51.716;7.016;2023-10-19T09:31:19;8.10;;;4.45;;
71753;SDS011;59593;51.716;7.016;2023-10-19T09:33:46;7.80;;;3.58;;
71753;SDS011;59593;51.716;7.016;2023-10-19T09:36:19;4.20;;;2.97;;
71753;SDS011;59593;51.716;7.016;2023-10-19T09:38:47;6.65;;;2.83;;
71753;SDS011;59593;51.716;7.016;2023-10-19T09:41:24;7.18;;;4.13;;
71753;SDS011;59593;51.716;7.016;2023-10-19T09:47:17;6.93;;;3.05;;
71753;SDS011;59593;51.716;7.016;2023-10-19T09:49:51;5.28;;;2.60;;
71753;SDS011;59593;51.716;7.016;2023-10-19T09:52:17;6.90;;;2.97;;
71753;SDS011;59593;51.716;7.016;2023-10-19T09:54:57;7.65;;;2.88;;
71753;SDS011;59593;51.716;7.016;2023-10-19T09:57:35;7.32;;;3.03;;
71753;SDS011;59593;51.716;7.016;2023-10-19T10:00:10;8.25;;;2.90;;
71753;SDS011;59593;51.716;7.016;2023-10-19T10:02:42;6.45;;;2.80;;
71753;SDS011;59593;51.716;7.016;2023-10-19T10:11:28;6.38;;;2.90;;
71753;SDS011;59593;51.716;7.016;2023-10-19T10:13:55;6.15;;;2.65;;
71753;SDS011;59593;51.716;7.016;2023-10-19T10:16:26;5.25;;;2.45;;
71753;SDS011;59593;51.716;7.016;2023-10-19T10:18:56;5.45;;;2.50;;
71753;SDS011;59593;51.716;7.016;2023-10-19T10:21:25;7.45;;;2.42;;
71753;SDS011;59593;51.716;7.016;2023-10-19T10:30:02;9.10;;;2.78;;
71753;SDS011;59593;51.716;7.016;2023-10-19T10:32:50;8.10;;;2.60;;
71753;SDS011;59593;51.716;7.016;2023-10-19T10:35:53;7.97;;;2.75;;
71753;SDS011;59593;51.716;7.016;2023-10-19T10:41:40;7.15;;;2.42;;
71753;SDS011;59593;51.716;7.016;2023-10-19T10:44:07;7.85;;;2.55;;
71753;SDS011;59593;51.716;7.016;2023-10-19T10:46:32;9.32;;;2.80;;
71753;SDS011;59593;51.716;7.016;2023-10-19T10:48:58;5.53;;;2.30;;
71753;SDS011;59593;51.716;7.016;2023-10-19T10:54:36;8.00;;;2.45;;
71753;SDS011;59593;51.716;7.016;2023-10-19T10:57:02;9.25;;;2.85;;
71753;SDS011;59593;51.716;7.016;2023-10-19T10:59:34;8.85;;;2.50;;
71753;SDS011;59593;51.716;7.016;2023-10-19T11:02:01;7.72;;;2.28;;
71753;SDS011;59593;51.716;7.016;2023-10-19T11:04:26;11.45;;;2.83;;
71753;SDS011;59593;51.716;7.016;2023-10-19T11:06:54;8.82;;;2.45;;
71753;SDS011;59593;51.716;7.016;2023-10-19T11:12:46;8.02;;;2.30;;
71753;SDS011;59593;51.716;7.016;2023-10-19T11:15:21;8.25;;;2.47;;
71753;SDS011;59593;51.716;7.016;2023-10-19T11:17:47;9.45;;;2.30;;
71753;SDS011;59593;51.716;7.016;2023-10-19T11:20:20;7.25;;;2.50;;
71753;SDS011;59593;51.716;7.016;2023-10-19T11:22:47;9.07;;;2.30;;
71753;SDS011;59593;51.716;7.016;2023-10-19T11:25:18;12.02;;;2.58;;
71753;SDS011;59593;51.716;7.016;2023-10-19T11:27:48;8.38;;;2.78;;
71753;SDS011;59593;51.716;7.016;2023-10-19T11:30:24;9.35;;;2.88;;
71753;SDS011;59593;51.716;7.016;2023-10-19T11:32:52;8.40;;;2.38;;
71753;SDS011;59593;51.716;7.016;2023-10-19T11:35:29;15.75;;;7.70;;
71753;SDS011;59593;51.716;7.016;2023-10-19T11:37:57;13.05;;;4.00;;
71753;SDS011;59593;51.716;7.016;2023-10-19T11:40:24;8.18;;;3.20;;
71753;SDS011;59593;51.716;7.016;2023-10-19T11:42:50;9.68;;;3.30;;
71753;SDS011;59593;51.716;7.016;2023-10-19T11:45:17;10.15;;;3.90;;
71753;SDS011;59593;51.716;7.016;2023-10-19T11:47:43;9.57;;;2.25;;
71753;SDS011;59593;51.716;7.016;2023-10-19T11:50:19;6.47;;;2.10;;
71753;SDS011;59593;51.716;7.016;2023-10-19T11:52:45;8.63;;;2.13;;
71753;SDS011;59593;51.716;7.016;2023-10-19T12:01:55;7.72;;;1.92;;
71753;SDS011;59593;51.716;7.016;2023-10-19T12:04:28;11.82;;;2.75;;
71753;SDS011;59593;51.716;7.016;2023-10-19T12:10:16;7.82;;;2.00;;
71753;SDS011;59593;51.716;7.016;2023-10-19T12:12:45;6.95;;;2.08;;
71753;SDS011;59593;51.716;7.016;2023-10-19T12:15:11;6.95;;;2.30;;
71753;SDS011;59593;51.716;7.016;2023-10-19T12:17:39;8.38;;;2.00;;
71753;SDS011;59593;51.716;7.016;2023-10-19T12:23:10;7.72;;;2.15;;
71753;SDS011;59593;51.716;7.016;2023-10-19T12:25:38;6.95;;;1.95;;
71753;SDS011;59593;51.716;7.016;2023-10-19T12:28:04;7.05;;;2.05;;
71753;SDS011;59593;51.716;7.016;2023-10-19T12:30:30;9.70;;;2.30;;
71753;SDS011;59593;51.716;7.016;2023-10-19T12:36:28;8.27;;;2.40;;
71753;SDS011;59593;51.716;7.016;2023-10-19T12:38:57;8.68;;;2.30;;
71753;SDS011;59593;51.716;7.016;2023-10-19T12:41:27;8.02;;;2.20;;
71753;SDS011;59593;51.716;7.016;2023-10-19T12:43:53;8.32;;;2.38;;
71753;SDS011;59593;51.716;7.016;2023-10-19T12:46:25;8.23;;;2.72;;
71753;SDS011;59593;51.716;7.016;2023-10-19T12:52:24;7.22;;;2.10;;
71753;SDS011;59593;51.716;7.016;2023-10-19T12:54:52;6.32;;;2.28;;
71753;SDS011;59593;51.716;7.016;2023-10-19T13:00:47;8.35;;;2.47;;
71753;SDS011;59593;51.716;7.016;2023-10-19T13:03:16;8.65;;;2.40;;
71753;SDS011;59593;51.716;7.016;2023-10-19T13:09:05;8.57;;;2.30;;
71753;SDS011;59593;51.716;7.016;2023-10-19T13:11:34;7.55;;;2.00;;
71753;SDS011;59593;51.716;7.016;2023-10-19T13:17:21;7.18;;;2.38;;
71753;SDS011;59593;51.716;7.016;2023-10-19T13:19:50;6.07;;;2.08;;
71753;SDS011;59593;51.716;7.016;2023-10-19T13:22:20;7.97;;;2.35;;
71753;SDS011;59593;51.716;7.016;2023-10-19T13:24:49;6.20;;;2.20;;
71753;SDS011;59593;51.716;7.016;2023-10-19T13:27:15;6.28;;;2.45;;
71753;SDS011;59593;51.716;7.016;2023-10-19T13:29:41;9.60;;;2.60;;
71753;SDS011;59593;51.716;7.016;2023-10-19T13:32:07;10.73;;;2.60;;
71753;SDS011;59593;51.716;7.016;2023-10-19T13:37:54;9.25;;;2.90;;
71753;SDS011;59593;51.716;7.016;2023-10-19T13:40:20;11.05;;;2.83;;
71753;SDS011;59593;51.716;7.016;2023-10-19T13:42:45;7.03;;;2.42;;
71753;SDS011;59593;51.716;7.016;2023-10-19T13:48:33;6.47;;;2.20;;
71753;SDS011;59593;51.716;7.016;2023-10-19T13:50:59;7.85;;;2.40;;
71753;SDS011;59593;51.716;7.016;2023-10-19T13:53:37;7.90;;;2.58;;
71753;SDS011;59593;51.716;7.016;2023-10-19T14:02:47;8.32;;;2.70;;
71753;SDS011;59593;51.716;7.016;2023-10-19T14:05:13;9.45;;;2.85;;
71753;SDS011;59593;51.716;7.016;2023-10-19T14:07:40;7.80;;;2.80;;
71753;SDS011;59593;51.716;7.016;2023-10-19T14:10:06;8.80;;;2.60;;
71753;SDS011;59593;51.716;7.016;2023-10-19T14:15:56;8.00;;;2.45;;
71753;SDS011;59593;51.716;7.016;2023-10-19T14:18:24;10.93;;;2.75;;
71753;SDS011;59593;51.716;7.016;2023-10-19T14:20:54;7.90;;;2.70;;
71753;SDS011;59593;51.716;7.016;2023-10-19T14:23:23;8.55;;;2.50;;
71753;SDS011;59593;51.716;7.016;2023-10-19T14:29:11;8.63;;;3.05;;
71753;SDS011;59593;51.716;7.016;2023-10-19T14:35:00;8.60;;;2.78;;
71753;SDS011;59593;51.716;7.016;2023-10-19T14:37:26;12.13;;;2.90;;
71753;SDS011;59593;51.716;7.016;2023-10-19T14:39:53;8.52;;;2.80;;
71753;SDS011;59593;51.716;7.016;2023-10-19T14:45:41;16.75;;;2.92;;
71753;SDS011;59593;51.716;7.016;2023-10-19T14:48:07;12.68;;;3.30;;
71753;SDS011;59593;51.716;7.016;2023-10-19T14:50:36;9.40;;;3.20;;
71753;SDS011;59593;51.716;7.016;2023-10-19T14:56:26;9.30;;;3.15;;
71753;SDS011;59593;51.716;7.016;2023-10-19T14:58:52;15.85;;;3.83;;
71753;SDS011;59593;51.716;7.016;2023-10-19T15:04:40;11.52;;;3.38;;
71753;SDS011;59593;51.716;7.016;2023-10-19T15:10:30;9.82;;;3.15;;
71753;SDS011;59593;51.716;7.016;2023-10-19T15:12:56;7.68;;;2.47;;
71753;SDS011;59593;51.716;7.016;2023-10-19T15:22:07;11.20;;;3.10;;
71753;SDS011;59593;51.716;7.016;2023-10-19T15:24:36;8.63;;;3.30;;
71753;SDS011;59593;51.716;7.016;2023-10-19T15:27:01;7.68;;;2.83;;
71753;SDS011;59593;51.716;7.016;2023-10-19T15:29:30;7.80;;;3.05;;
71753;SDS011;59593;51.716;7.016;2023-10-19T15:31:55;7.28;;;3.08;;
71753;SDS011;59593;51.716;7.016;2023-10-19T15:34:21;10.00;;;3.00;;
71753;SDS011;59593;51.716;7.016;2023-10-19T15:36:48;10.68;;;4.10;;
71753;SDS011;59593;51.716;7.016;2023-10-19T15:49:20;6.55;;;3.40;;
71753;SDS011;59593;51.716;7.016;2023-10-19T15:51:45;9.00;;;3.20;;
71753;SDS011;59593;51.716;7.016;2023-10-19T15:57:38;13.93;;;3.88;;
71753;SDS011;59593;51.716;7.016;2023-10-19T16:03:28;7.30;;;3.70;;
71753;SDS011;59593;51.716;7.016;2023-10-19T16:05:56;9.63;;;4.07;;
71753;SDS011;59593;51.716;7.016;2023-10-19T16:08:21;12.93;;;4.95;;
71753;SDS011;59593;51.716;7.016;2023-10-19T16:10:47;12.93;;;5.32;;
71753;SDS011;59593;51.716;7.016;2023-10-19T16:13:15;10.10;;;6.65;;
71753;SDS011;59593;51.716;7.016;2023-10-19T16:15:40;13.70;;;8.90;;
71753;SDS011;59593;51.716;7.016;2023-10-19T16:18:06;12.25;;;7.82;;
71753;SDS011;59593;51.716;7.016;2023-10-19T16:20:32;14.07;;;6.82;;
71753;SDS011;59593;51.716;7.016;2023-10-19T16:22:57;9.73;;;4.18;;
71753;SDS011;59593;51.716;7.016;2023-10-19T16:25:23;10.60;;;3.17;;
71753;SDS011;59593;51.716;7.016;2023-10-19T16:27:49;7.63;;;3.10;;
71753;SDS011;59593;51.716;7.016;2023-10-19T16:30:15;7.40;;;3.08;;
71753;SDS011;59593;51.716;7.016;2023-10-19T16:32:42;7.97;;;3.40;;
71753;SDS011;59593;51.716;7.016;2023-10-19T16:35:08;9.15;;;3.15;;
71753;SDS011;59593;51.716;7.016;2023-10-19T16:37:44;7.63;;;3.33;;
71753;SDS011;59593;51.716;7.016;2023-10-19T16:40:09;9.85;;;3.42;;
71753;SDS011;59593;51.716;7.016;2023-10-19T16:46:00;15.82;;;4.25;;
71753;SDS011;59593;51.716;7.016;2023-10-19T16:48:26;9.55;;;4.18;;
71753;SDS011;59593;51.716;7.016;2023-10-19T16:50:52;11.25;;;4.10;;
71753;SDS011;59593;51.716;7.016;2023-10-19T16:56:39;10.55;;;3.67;;
71753;SDS011;59593;51.716;7.016;2023-10-19T16:59:11;8.88;;;3.63;;
71753;SDS011;59593;51.716;7.016;2023-10-19T17:01:37;9.27;;;4.07;;
71753;SDS011;59593;51.716;7.016;2023-10-19T17:04:03;10.68;;;4.00;;
71753;SDS011;59593;51.716;7.016;2023-10-19T17:06:29;6.63;;;3.60;;
71753;SDS011;59593;51.716;7.016;2023-10-19T17:08:56;10.20;;;3.83;;
71753;SDS011;59593;51.716;7.016;2023-10-19T17:11:34;13.32;;;3.75;;
71753;SDS011;59593;51.716;7.016;2023-10-19T17:17:22;8.35;;;3.60;;
71753;SDS011;59593;51.716;7.016;2023-10-19T17:19:47;8.90;;;3.63;;
71753;SDS011;59593;51.716;7.016;2023-10-19T17:22:13;10.45;;;3.38;;
71753;SDS011;59593;51.716;7.016;2023-10-19T17:24:40;9.60;;;3.90;;
71753;SDS011;59593;51.716;7.016;2023-10-19T17:27:06;9.75;;;4.10;;
71753;SDS011;59593;51.716;7.016;2023-10-19T17:29:35;9.20;;;3.85;;
71753;SDS011;59593;51.716;7.016;2023-10-19T17:32:01;10.07;;;4.38;;
71753;SDS011;59593;51.716;7.016;2023-10-19T17:34:30;11.75;;;4.13;;
71753;SDS011;59593;51.716;7.016;2023-10-19T17:40:21;9.20;;;3.95;;
71753;SDS011;59593;51.716;7.016;2023-10-19T17:42:47;12.80;;;4.45;;
71753;SDS011;59593;51.716;7.016;2023-10-19T17:45:13;9.27;;;4.55;;
71753;SDS011;59593;51.716;7.016;2023-10-19T17:47:39;14.00;;;4.70;;
71753;SDS011;59593;51.716;7.016;2023-10-19T17:50:05;9.50;;;4.30;;
71753;SDS011;59593;51.716;7.016;2023-10-19T17:52:35;11.05;;;4.60;;
71753;SDS011;59593;51.716;7.016;2023-10-19T17:55:01;9.27;;;4.65;;
71753;SDS011;59593;51.716;7.016;2023-10-19T17:57:27;13.13;;;7.35;;
71753;SDS011;59593;51.716;7.016;2023-10-19T17:59:53;10.80;;;5.47;;
71753;SDS011;59593;51.716;7.016;2023-10-19T18:06:21;11.98;;;5.55;;
71753;SDS011;59593;51.716;7.016;2023-10-19T18:12:13;15.07;;;5.93;;
71753;SDS011;59593;51.716;7.016;2023-10-19T18:14:39;9.10;;;5.80;;
71753;SDS011;59593;51.716;7.016;2023-10-19T18:17:05;14.90;;;6.43;;
71753;SDS011;59593;51.716;7.016;2023-10-19T18:19:34;9.55;;;5.60;;
71753;SDS011;59593;51.716;7.016;2023-10-19T18:22:01;10.65;;;6.13;;
71753;SDS011;59593;51.716;7.016;2023-10-19T18:24:27;14.32;;;6.30;;
71753;SDS011;59593;51.716;7.016;2023-10-19T18:26:57;12.18;;;5.88;;
71753;SDS011;59593;51.716;7.016;2023-10-19T18:29:25;14.20;;;6.20;;
71753;SDS011;59593;51.716;7.016;2023-10-19T18:31:54;13.70;;;6.22;;
71753;SDS011;59593;51.716;7.016;2023-10-19T18:34:20;13.77;;;5.97;;
71753;SDS011;59593;51.716;7.016;2023-10-19T18:36:50;11.82;;;5.57;;
71753;SDS011;59593;51.716;7.016;2023-10-19T18:39:17;11.13;;;5.82;;
71753;SDS011;59593;51.716;7.016;2023-10-19T18:41:43;12.27;;;5.85;;
71753;SDS011;59593;51.716;7.016;2023-10-19T18:44:12;13.10;;;5.55;;
71753;SDS011;59593;51.716;7.016;2023-10-19T18:46:38;11.10;;;5.22;;
71753;SDS011;59593;51.716;7.016;2023-10-19T18:52:26;12.80;;;5.75;;
71753;SDS011;59593;51.716;7.016;2023-10-19T18:54:55;11.68;;;5.65;;